createdAt,value
2023-03-01T00:01:06.135Z,-2.43
2023-03-01T00:03:52.234Z,-2.41
2023-03-01T00:05:53.648Z,-2.4
2023-03-01T00:07:55.383Z,-2.21
2023-03-01T00:09:57.138Z,-2.33
2023-03-01T00:11:58.512Z,-2.23
2023-03-01T00:14:00.204Z,-2.16
2023-03-01T00:16:02.221Z,-2.1
2023-03-01T00:18:03.876Z,-2.26
2023-03-01T00:20:05.036Z,-2.24
2023-03-01T00:22:06.642Z,-2.41
2023-03-01T00:24:08.591Z,-2.34
2023-03-01T00:26:10.470Z,-2.3
2023-03-01T00:28:11.664Z,-2.26
2023-03-01T00:30:12.827Z,-2.26
2023-03-01T00:32:14.608Z,-2.17
2023-03-01T00:34:16.511Z,-2.18
2023-03-01T00:36:18.404Z,-2.26
2023-03-01T00:38:20.404Z,-2.33
2023-03-01T00:40:21.982Z,-2.42
2023-03-01T00:42:24.019Z,-2.51
2023-03-01T00:44:26.023Z,-2.5
2023-03-01T00:46:27.269Z,-2.54
2023-03-01T00:48:29.024Z,-2.63
2023-03-01T00:50:31.122Z,-2.75
2023-03-01T00:52:32.954Z,-2.8
2023-03-01T00:54:34.702Z,-2.88
2023-03-01T00:56:36.027Z,-2.89
2023-03-01T00:58:37.793Z,-2.83
2023-03-01T01:00:39.142Z,-2.85
2023-03-01T01:02:41.050Z,-2.82
2023-03-01T01:04:42.435Z,-2.87
2023-03-01T01:06:44.278Z,-2.78
2023-03-01T01:08:46.349Z,-2.88
2023-03-01T01:10:48.261Z,-2.98
2023-03-01T01:12:49.732Z,-2.91
2023-03-01T01:14:51.691Z,-2.86
2023-03-01T01:16:53.281Z,-2.91
2023-03-01T01:18:54.442Z,-2.95
2023-03-01T01:20:55.866Z,-2.95
2023-03-01T01:22:57.486Z,-2.98
2023-03-01T01:24:59.460Z,-2.89
2023-03-01T01:27:00.921Z,-2.97
2023-03-01T01:29:02.895Z,-2.93
2023-03-01T01:31:04.347Z,-2.97
2023-03-01T01:33:05.504Z,-2.91
2023-03-01T01:35:07.466Z,-2.89
2023-03-01T01:37:09.584Z,-2.97
2023-03-01T01:39:11.576Z,-2.99
2023-03-01T01:41:12.928Z,-2.98
2023-03-01T01:43:14.571Z,-2.98
2023-03-01T01:45:16.485Z,-3.01
2023-03-01T01:47:18.130Z,-3.19
2023-03-01T01:49:20.035Z,-3.35
2023-03-01T01:51:21.654Z,-3.47
2023-03-01T01:53:23.489Z,-3.56
2023-03-01T01:55:25.536Z,-3.54
2023-03-01T01:57:27.475Z,-3.6
2023-03-01T01:59:28.908Z,-3.43
2023-03-01T02:01:30.484Z,-3.55
2023-03-01T02:03:32.194Z,-3.57
2023-03-01T02:05:33.370Z,-3.62
2023-03-01T02:07:34.624Z,-3.6
2023-03-01T02:09:35.936Z,-3.55
2023-03-01T02:11:38.087Z,-3.53
2023-03-01T02:13:39.837Z,-3.44
2023-03-01T02:15:41.743Z,-3.44
2023-03-01T02:17:43.346Z,-3.48
2023-03-01T02:19:44.836Z,-3.5
2023-03-01T02:21:46.232Z,-3.49
2023-03-01T02:23:47.491Z,-3.57
2023-03-01T02:25:48.679Z,-3.53
2023-03-01T02:27:50.007Z,-3.51
2023-03-01T02:29:51.843Z,-3.5
2023-03-01T02:31:53.671Z,-3.45
2023-03-01T02:33:55.360Z,-3.57
2023-03-01T02:35:57.296Z,-3.62
2023-03-01T02:37:59.129Z,-3.7
2023-03-01T02:40:00.922Z,-3.73
2023-03-01T02:42:02.689Z,-3.64
2023-03-01T02:44:04.564Z,-3.69
2023-03-01T02:46:06.397Z,-3.7
2023-03-01T02:48:08.276Z,-3.67
2023-03-01T02:50:09.591Z,-3.66
2023-03-01T02:52:11.051Z,-3.68
2023-03-01T02:54:12.199Z,-3.65
2023-03-01T02:56:13.361Z,-3.65
2023-03-01T02:58:14.621Z,-3.78
2023-03-01T03:00:16.252Z,-3.94
2023-03-01T03:02:17.478Z,-4
2023-03-01T03:04:19.314Z,-3.99
2023-03-01T03:06:21.386Z,-4.07
2023-03-01T03:08:22.972Z,-4.2
2023-03-01T03:10:25.010Z,-4.28
2023-03-01T03:12:26.801Z,-4.33
2023-03-01T03:14:27.939Z,-4.34
2023-03-01T03:16:29.975Z,-4.34
2023-03-01T03:18:31.420Z,-4.47
2023-03-01T03:20:32.595Z,-4.32
2023-03-01T03:22:34.744Z,-4.33
2023-03-01T03:24:36.410Z,-4.34
2023-03-01T03:26:38.348Z,-4.22
2023-03-01T03:28:40.217Z,-4.28
2023-03-01T03:30:42.017Z,-4.32
2023-03-01T03:32:43.853Z,-4.4
2023-03-01T03:34:45.194Z,-4.43
2023-03-01T03:36:46.480Z,-4.47
2023-03-01T03:38:48.555Z,-4.55
2023-03-01T03:40:50.544Z,-4.65
2023-03-01T03:42:52.447Z,-4.64
2023-03-01T03:44:54.081Z,-4.7
2023-03-01T03:46:55.669Z,-4.7
2023-03-01T03:48:57.334Z,-4.75
2023-03-01T03:50:58.775Z,-4.75
2023-03-01T03:53:00.810Z,-4.8
2023-03-01T03:55:02.401Z,-4.84
2023-03-01T03:57:04.390Z,-4.89
2023-03-01T03:59:06.123Z,-4.84
2023-03-01T04:01:08.020Z,-4.77
2023-03-01T04:03:09.918Z,-4.62
2023-03-01T04:05:11.467Z,-4.46
2023-03-01T04:07:13.373Z,-4.54
2023-03-01T04:09:14.628Z,-4.7
2023-03-01T04:11:16.602Z,-4.93
2023-03-01T04:13:17.865Z,-5.06
2023-03-01T04:15:19.055Z,-5.11
2023-03-01T04:17:20.627Z,-5.11
2023-03-01T04:19:22.242Z,-5.14
2023-03-01T04:21:24.033Z,-4.9
2023-03-01T04:23:34.465Z,-4.52
2023-03-01T04:25:27.450Z,-4.19
2023-03-01T04:27:29.398Z,-4.26
2023-03-01T04:29:30.974Z,-4.04
2023-03-01T04:31:32.527Z,-4.03
2023-03-01T04:33:34.517Z,-3.84
2023-03-01T04:35:36.189Z,-3.91
2023-03-01T04:37:38.105Z,-3.96
2023-03-01T04:39:40.203Z,-3.96
2023-03-01T04:41:41.910Z,-3.96
2023-03-01T04:43:43.941Z,-3.97
2023-03-01T04:45:45.945Z,-4.13
2023-03-01T04:47:47.647Z,-4.27
2023-03-01T04:49:49.455Z,-4.29
2023-03-01T04:51:51.228Z,-4.22
2023-03-01T04:53:53.228Z,-4.28
2023-03-01T04:55:54.626Z,-4.16
2023-03-01T04:57:56.235Z,-4.17
2023-03-01T04:59:57.759Z,-4.14
2023-03-01T05:01:59.666Z,-4.09
2023-03-01T05:04:01.235Z,-4.05
2023-03-01T05:06:02.522Z,-4.22
2023-03-01T05:08:03.809Z,-4.23
2023-03-01T05:10:04.961Z,-4.26
2023-03-01T05:12:06.900Z,-4.35
2023-03-01T05:14:09.020Z,-4.33
2023-03-01T05:16:10.616Z,-4.26
2023-03-01T05:18:11.892Z,-4.11
2023-03-01T05:20:13.236Z,-4.1
2023-03-01T05:22:14.780Z,-4.12
2023-03-01T05:24:16.682Z,-4.03
2023-03-01T05:26:27.703Z,-3.93
2023-03-01T05:28:19.538Z,-3.99
2023-03-01T05:30:20.871Z,-4.1
2023-03-01T05:32:22.024Z,-4.05
2023-03-01T05:34:23.717Z,-4.17
2023-03-01T05:36:25.599Z,-4.23
2023-03-01T05:38:27.105Z,-4.26
2023-03-01T05:40:28.264Z,-4.34
2023-03-01T05:42:30.262Z,-4.53
2023-03-01T05:44:31.612Z,-4.65
2023-03-01T05:46:33.485Z,-4.7
2023-03-01T05:48:35.580Z,-4.62
2023-03-01T05:50:36.901Z,-4.57
2023-03-01T05:52:38.257Z,-4.63
2023-03-01T05:54:40.190Z,-4.56
2023-03-01T05:56:42.236Z,-4.67
2023-03-01T05:58:44.081Z,-4.71
2023-03-01T06:00:45.894Z,-4.81
2023-03-01T06:02:47.325Z,-4.93
2023-03-01T06:04:49.376Z,-4.98
2023-03-01T06:06:51.006Z,-4.97
2023-03-01T06:08:52.303Z,-4.97
2023-03-01T06:10:53.896Z,-4.95
2023-03-01T06:12:55.650Z,-5.01
2023-03-01T06:14:57.164Z,-5.05
2023-03-01T06:16:58.495Z,-5.13
2023-03-01T06:19:00.510Z,-5.18
2023-03-01T06:21:02.340Z,-5.15
2023-03-01T06:23:04.387Z,-5.18
2023-03-01T06:25:05.720Z,-5.14
2023-03-01T06:27:07.367Z,-5.09
2023-03-01T06:29:08.586Z,-5.07
2023-03-01T06:31:10.139Z,-5.04
2023-03-01T06:33:11.258Z,-5.09
2023-03-01T06:35:12.836Z,-5.02
2023-03-01T06:37:14.454Z,-5.04
2023-03-01T06:39:16.210Z,-5
2023-03-01T06:41:18.027Z,-4.98
2023-03-01T06:43:19.350Z,-4.89
2023-03-01T06:45:21.316Z,-4.76
2023-03-01T06:47:23.052Z,-4.63
2023-03-01T06:48:07.067Z,-4.56
2023-03-01T06:50:08.726Z,-4.39
2023-03-01T06:52:10.015Z,-4.25
2023-03-01T06:54:11.444Z,-4.2
2023-03-01T06:56:13.331Z,-4.11
2023-03-01T06:58:15.350Z,-4.02
2023-03-01T07:00:17.419Z,-3.8
2023-03-01T07:02:18.639Z,-3.5
2023-03-01T07:04:19.948Z,-3.26
2023-03-01T07:06:21.810Z,-3.25
2023-03-01T07:08:22.882Z,-3.27
2023-03-01T07:10:24.014Z,-3.26
2023-03-01T07:12:26.071Z,-3.23
2023-03-01T07:14:28.014Z,-3.18
2023-03-01T07:16:30.042Z,-3.25
2023-03-01T07:18:30.948Z,-3.16
2023-03-01T07:20:32.633Z,-2.95
2023-03-01T07:22:34.469Z,-2.73
2023-03-01T07:24:36.234Z,-2.6
2023-03-01T07:26:37.694Z,-2.17
2023-03-01T07:28:39.493Z,-2.17
2023-03-01T07:30:40.789Z,-1.91
2023-03-01T07:32:42.716Z,-1.37
2023-03-01T07:34:44.024Z,-1.6
2023-03-01T07:36:45.444Z,-1.6
2023-03-01T07:38:47.271Z,-1.8
2023-03-01T07:40:48.311Z,-1.31
2023-03-01T07:42:50.274Z,-1.08
2023-03-01T07:44:52.216Z,-1.44
2023-03-01T07:46:53.362Z,-1.35
2023-03-01T07:48:55.241Z,-1.08
2023-03-01T07:50:57.084Z,-1.56
2023-03-01T07:52:58.086Z,-1.14
2023-03-01T07:54:59.174Z,-0.58
2023-03-01T07:57:00.439Z,0.08
2023-03-01T07:59:01.683Z,0.19
2023-03-01T08:01:02.899Z,0.29
2023-03-01T08:03:04.684Z,0.31
2023-03-01T08:05:06.319Z,0.62
2023-03-01T08:07:08.157Z,0.72
2023-03-01T08:09:09.718Z,0.27
2023-03-01T08:11:11.173Z,0.6
2023-03-01T08:13:12.731Z,0.71
2023-03-01T08:15:14.444Z,0.87
2023-03-01T08:17:16.296Z,0.67
2023-03-01T08:19:17.806Z,0.97
2023-03-01T08:21:19.385Z,1.46
2023-03-01T08:23:20.728Z,0.91
2023-03-01T08:25:21.947Z,0.53
2023-03-01T08:27:23.985Z,0.94
2023-03-01T08:29:24.238Z,0.56
2023-03-01T08:31:25.657Z,0.84
2023-03-01T08:33:27.185Z,0.77
2023-03-01T08:35:28.371Z,0.63
2023-03-01T08:39:31.347Z,0.7
2023-03-01T08:41:32.591Z,0.9
2023-03-01T08:43:33.828Z,0.91
2023-03-01T08:45:35.069Z,1.11
2023-03-01T08:47:36.506Z,0.85
2023-03-01T08:49:37.554Z,0.85
2023-03-01T08:51:39.190Z,1.06
2023-03-01T08:53:40.578Z,1.08
2023-03-01T08:55:42.392Z,1.39
2023-03-01T08:57:43.588Z,1.27
2023-03-01T08:59:45.404Z,1.33
2023-03-01T09:01:46.470Z,1.55
2023-03-01T09:03:47.813Z,1.62
2023-03-01T09:05:48.877Z,1.52
2023-03-01T09:07:50.390Z,1.79
2023-03-01T09:09:51.385Z,1.84
2023-03-01T09:11:52.552Z,2.21
2023-03-01T09:13:53.634Z,2.06
2023-03-01T09:15:54.821Z,2.32
2023-03-01T09:17:56.519Z,2.38
2023-03-01T09:19:57.729Z,2.44
2023-03-01T09:21:58.675Z,2.61
2023-03-01T09:24:00.012Z,2.76
2023-03-01T09:26:01.037Z,2.66
2023-03-01T09:28:02.085Z,2.78
2023-03-01T09:30:03.354Z,2.28
2023-03-01T09:32:04.721Z,2.79
2023-03-01T09:34:05.860Z,2.68
2023-03-01T09:36:07.287Z,2.77
2023-03-01T09:38:08.585Z,3.19
2023-03-01T09:40:10.168Z,3.08
2023-03-01T09:42:12.060Z,2.87
2023-03-01T09:44:13.039Z,2.96
2023-03-01T09:46:14.673Z,3.07
2023-03-01T09:48:16.219Z,3.44
2023-03-01T09:50:17.979Z,3.56
2023-03-01T09:52:19.715Z,3.14
2023-03-01T09:54:21.434Z,3.14
2023-03-01T09:56:23.151Z,2.94
2023-03-01T09:58:24.285Z,3.43
2023-03-01T10:00:25.964Z,3.34
2023-03-01T10:02:26.936Z,3.11
2023-03-01T10:04:28.709Z,3.07
2023-03-01T10:06:34.761Z,3.22
2023-03-01T10:08:31.345Z,3.69
2023-03-01T10:10:33.214Z,3.32
2023-03-01T10:12:34.421Z,3.29
2023-03-01T10:14:35.585Z,4.21
2023-03-01T10:16:36.617Z,3.82
2023-03-01T10:18:38.136Z,3.34
2023-03-01T10:20:39.691Z,3.76
2023-03-01T10:22:41.419Z,3.76
2023-03-01T10:24:42.941Z,3.94
2023-03-01T10:26:44.239Z,4.26
2023-03-01T10:28:46.045Z,4.12
2023-03-01T10:30:47.415Z,4.03
2023-03-01T10:32:48.398Z,3.84
2023-03-01T10:34:49.620Z,3.55
2023-03-01T10:36:51.526Z,4.09
2023-03-01T10:38:52.914Z,4.23
2023-03-01T10:40:54.675Z,4.53
2023-03-01T10:42:55.911Z,4.32
2023-03-01T10:44:57.105Z,4.6
2023-03-01T10:46:58.138Z,4.92
2023-03-01T10:48:59.817Z,4.83
2023-03-01T10:51:01.587Z,4.07
2023-03-01T10:53:03.177Z,4.44
2023-03-01T10:55:04.839Z,4.79
2023-03-01T10:57:06.111Z,5.07
2023-03-01T10:59:07.689Z,4.83
2023-03-01T11:03:10.869Z,4.49
2023-03-01T11:05:12.240Z,4.38
2023-03-01T11:07:13.599Z,5.05
2023-03-01T11:09:15.252Z,4.62
2023-03-01T11:11:17.076Z,4.69
2023-03-01T11:13:18.648Z,5.07
2023-03-01T11:15:20.013Z,4.76
2023-03-01T11:17:21.204Z,5.24
2023-03-01T11:19:22.819Z,5.06
2023-03-01T11:21:24.156Z,5.29
2023-03-01T11:23:25.779Z,5.7
2023-03-01T11:25:26.882Z,5.35
2023-03-01T11:27:28.613Z,5.44
2023-03-01T11:29:34.839Z,5.53
2023-03-01T11:31:30.969Z,5.36
2023-03-01T11:33:32.517Z,5.26
2023-03-01T11:35:33.641Z,5.37
2023-03-01T11:37:35.480Z,5.59
2023-03-01T11:39:37.395Z,5.49
2023-03-01T11:41:38.881Z,5.78
2023-03-01T11:43:40.102Z,5.87
2023-03-01T11:45:41.633Z,6.04
2023-03-01T11:47:43.214Z,5.71
2023-03-01T11:49:44.083Z,5.99
2023-03-01T11:51:45.745Z,5.78
2023-03-01T11:55:48.420Z,6.15
2023-03-01T11:57:49.706Z,6.28
2023-03-01T11:59:51.019Z,6.58
2023-03-01T12:01:52.357Z,6.51
2023-03-01T12:03:54.016Z,6.14
2023-03-01T12:05:55.427Z,6.22
2023-03-01T12:07:57.284Z,6.02
2023-03-01T12:09:58.504Z,6.31
2023-03-01T12:11:59.985Z,6.09
2023-03-01T12:14:01.603Z,6.76
2023-03-01T12:18:05.175Z,6.42
2023-03-01T12:20:06.779Z,6.9
2023-03-01T12:22:08.135Z,6.61
2023-03-01T12:24:09.363Z,6.68
2023-03-01T12:26:12.017Z,6.45
2023-03-01T12:28:12.139Z,6.75
2023-03-01T12:30:13.223Z,6.41
2023-03-01T12:32:15.183Z,7.04
2023-03-01T12:34:16.778Z,6.44
2023-03-01T12:36:17.753Z,6.51
2023-03-01T12:38:18.688Z,6.55
2023-03-01T12:40:19.980Z,6.59
2023-03-01T12:42:21.226Z,6.32
2023-03-01T12:44:22.479Z,7
2023-03-01T12:46:23.584Z,7.13
2023-03-01T12:48:24.836Z,7.17
2023-03-01T12:50:26.731Z,7.01
2023-03-01T12:52:28.316Z,7.26
2023-03-01T12:54:29.254Z,7.35
2023-03-01T12:56:30.707Z,7.14
2023-03-01T12:58:40.362Z,7.61
2023-03-01T13:00:33.851Z,7.16
2023-03-01T13:02:34.869Z,6.78
2023-03-01T13:04:35.980Z,6.9
2023-03-01T13:06:42.930Z,6.86
2023-03-01T13:08:39.500Z,7.23
2023-03-01T13:10:40.869Z,7.03
2023-03-01T13:12:42.752Z,7.47
2023-03-01T13:14:44.105Z,7.18
2023-03-01T13:16:45.196Z,7.68
2023-03-01T13:18:47.047Z,7.11
2023-03-01T13:20:48.593Z,7.32
2023-03-01T13:22:54.551Z,7.21
2023-03-01T13:24:51.286Z,7.48
2023-03-01T13:26:52.821Z,7.05
2023-03-01T13:28:53.911Z,7.05
2023-03-01T13:30:54.944Z,6.82
2023-03-01T13:32:56.616Z,7.35
2023-03-01T13:33:40.235Z,7.66
2023-03-01T13:35:41.704Z,7.53
2023-03-01T13:37:43.516Z,7.59
2023-03-01T13:39:44.526Z,7.21
2023-03-01T13:41:45.709Z,7.29
2023-03-01T13:43:47.541Z,7.3
2023-03-01T13:45:49.063Z,7.32
2023-03-01T13:47:50.836Z,7.03
2023-03-01T13:49:52.410Z,7.43
2023-03-01T13:51:53.800Z,7.19
2023-03-01T13:53:55.096Z,7.48
2023-03-01T13:55:58.151Z,7.48
2023-03-01T13:57:58.474Z,7.28
2023-03-01T13:59:59.960Z,7.67
2023-03-01T14:02:01.304Z,7.86
2023-03-01T14:04:02.921Z,7.89
2023-03-01T14:06:13.923Z,7.72
2023-03-01T14:08:06.060Z,7.81
2023-03-01T14:10:07.057Z,7.91
2023-03-01T14:12:08.584Z,7.8
2023-03-01T14:14:10.396Z,7.87
2023-03-01T14:16:11.460Z,7.95
2023-03-01T14:18:13.044Z,7.72
2023-03-01T14:20:14.346Z,7.7
2023-03-01T14:22:15.464Z,7.63
2023-03-01T14:24:16.908Z,7.82
2023-03-01T14:26:18.629Z,7.79
2023-03-01T14:28:19.807Z,7.99
2023-03-01T14:30:21.341Z,8.24
2023-03-01T14:32:22.357Z,8.01
2023-03-01T14:36:24.545Z,8.05
2023-03-01T14:38:26.150Z,8.18
2023-03-01T14:40:27.150Z,8.29
2023-03-01T14:42:28.834Z,8.36
2023-03-01T14:44:30.247Z,8.37
2023-03-01T14:46:31.628Z,7.78
2023-03-01T14:48:32.451Z,8.15
2023-03-01T14:50:33.518Z,8.16
2023-03-01T14:52:35.074Z,8.11
2023-03-01T14:54:36.214Z,7.87
2023-03-01T14:56:38.054Z,7.75
2023-03-01T14:58:39.062Z,7.75
2023-03-01T15:00:40.502Z,8.04
2023-03-01T15:02:42.051Z,8.19
2023-03-01T15:04:43.067Z,8.32
2023-03-01T15:06:43.984Z,8.09
2023-03-01T15:08:45.613Z,7.96
2023-03-01T15:10:47.332Z,7.87
2023-03-01T15:12:48.528Z,7.78
2023-03-01T15:15:01.526Z,7.96
2023-03-01T15:16:51.852Z,7.86
2023-03-01T15:18:52.777Z,7.8
2023-03-01T15:20:54.528Z,7.96
2023-03-01T15:22:56.003Z,7.94
2023-03-01T15:24:57.651Z,8.04
2023-03-01T15:26:59.028Z,8
2023-03-01T15:29:00.721Z,7.87
2023-03-01T15:31:02.213Z,7.98
2023-03-01T15:33:02.974Z,8
2023-03-01T15:35:04.795Z,8.03
2023-03-01T15:37:06.059Z,7.82
2023-03-01T15:39:07.328Z,7.76
2023-03-01T15:41:08.981Z,7.71
2023-03-01T15:43:10.479Z,7.68
2023-03-01T15:45:12.062Z,7.72
2023-03-01T15:47:13.716Z,7.55
2023-03-01T15:49:14.800Z,7.56
2023-03-01T15:51:16.037Z,7.49
2023-03-01T15:53:17.805Z,7.3
2023-03-01T15:55:18.836Z,7.45
2023-03-01T15:57:20.458Z,7.5
2023-03-01T15:59:21.692Z,7.39
2023-03-01T16:01:23.697Z,7.35
2023-03-01T16:03:24.784Z,7.3
2023-03-01T16:05:26.115Z,7.17
2023-03-01T16:07:27.162Z,7.2
2023-03-01T16:09:28.671Z,7.08
2023-03-01T16:11:29.593Z,7.06
2023-03-01T16:13:31.424Z,6.99
2023-03-01T16:15:33.234Z,6.95
2023-03-01T16:17:34.289Z,6.94
2023-03-01T16:19:36.176Z,6.92
2023-03-01T16:21:37.983Z,6.8
2023-03-01T16:23:39.507Z,6.78
2023-03-01T16:25:40.754Z,6.75
2023-03-01T16:27:42.525Z,6.81
2023-03-01T16:29:43.996Z,6.7
2023-03-01T16:31:45.834Z,6.68
2023-03-01T16:33:47.546Z,6.53
2023-03-01T16:35:48.861Z,6.41
2023-03-01T16:37:50.502Z,6.4
2023-03-01T16:39:52.312Z,6.49
2023-03-01T16:41:53.490Z,6.41
2023-03-01T16:43:54.774Z,6.27
2023-03-01T16:45:56.626Z,6.07
2023-03-01T16:47:58.236Z,6
2023-03-01T16:49:59.844Z,5.97
2023-03-01T16:52:01.318Z,5.8
2023-03-01T16:54:02.456Z,5.8
2023-03-01T16:56:04.073Z,5.73
2023-03-01T16:58:06.017Z,5.54
2023-03-01T17:00:07.862Z,5.51
2023-03-01T17:02:09.066Z,5.42
2023-03-01T17:04:10.737Z,5.38
2023-03-01T17:06:12.712Z,5.19
2023-03-01T17:08:14.174Z,5.04
2023-03-01T17:10:15.793Z,4.93
2023-03-01T17:12:17.304Z,5
2023-03-01T17:14:18.966Z,4.93
2023-03-01T17:16:20.761Z,4.82
2023-03-01T17:18:22.447Z,4.79
2023-03-01T17:20:24.205Z,4.68
2023-03-01T17:22:25.795Z,4.62
2023-03-01T17:24:27.106Z,4.49
2023-03-01T17:26:28.852Z,4.33
2023-03-01T17:28:30.293Z,4.28
2023-03-01T17:30:31.706Z,4.14
2023-03-01T17:32:33.708Z,4.05
2023-03-01T17:34:35.124Z,4.3
2023-03-01T17:36:36.729Z,4.25
2023-03-01T17:38:38.731Z,4.07
2023-03-01T17:40:40.055Z,4.21
2023-03-01T17:42:42.030Z,4.07
2023-03-01T17:44:43.897Z,4.04
2023-03-01T17:46:44.613Z,4.08
2023-03-01T17:48:46.037Z,4.01
2023-03-01T17:50:47.618Z,3.9
2023-03-01T17:52:49.260Z,3.86
2023-03-01T17:54:50.626Z,3.75
2023-03-01T17:56:52.566Z,3.7
2023-03-01T17:58:54.170Z,3.73
2023-03-01T18:00:55.923Z,3.7
2023-03-01T18:02:57.623Z,3.68
2023-03-01T18:04:58.748Z,3.7
2023-03-01T18:07:00.192Z,3.62
2023-03-01T18:09:01.527Z,3.61
2023-03-01T18:11:03.304Z,3.55
2023-03-01T18:13:04.434Z,3.53
2023-03-01T18:15:06.100Z,3.43
2023-03-01T18:17:07.545Z,3.37
2023-03-01T18:19:09.171Z,3.41
2023-03-01T18:21:10.985Z,3.46
2023-03-01T18:23:12.323Z,3.44
2023-03-01T18:25:14.157Z,3.47
2023-03-01T18:27:15.159Z,3.35
2023-03-01T18:29:16.765Z,3.32
2023-03-01T18:31:18.295Z,3.35
2023-03-01T18:33:19.764Z,3.38
2023-03-01T18:35:21.663Z,3.3
2023-03-01T18:37:23.362Z,3.18
2023-03-01T18:39:24.833Z,3.27
2023-03-01T18:41:25.941Z,3.1
2023-03-01T18:43:27.835Z,3.07
2023-03-01T18:45:29.214Z,3.02
2023-03-01T18:47:31.235Z,2.88
2023-03-01T18:49:32.257Z,2.83
2023-03-01T18:51:33.963Z,2.89
2023-03-01T18:53:34.930Z,2.86
2023-03-01T18:55:36.304Z,2.76
2023-03-01T18:57:38.144Z,2.96
2023-03-01T18:59:39.642Z,2.81
2023-03-01T19:01:41.644Z,2.82
2023-03-01T19:03:43.334Z,2.75
2023-03-01T19:07:46.200Z,2.74
2023-03-01T19:09:47.525Z,2.66
2023-03-01T19:11:49.516Z,2.54
2023-03-01T19:13:50.833Z,2.56
2023-03-01T19:15:51.933Z,2.51
2023-03-01T19:17:54.484Z,2.52
2023-03-01T19:19:54.293Z,2.49
2023-03-01T19:22:04.999Z,2.39
2023-03-01T19:23:57.216Z,2.36
2023-03-01T19:25:59.005Z,2.3
2023-03-01T19:28:00.970Z,2.29
2023-03-01T19:30:02.094Z,2.32
2023-03-01T19:32:03.754Z,2.32
2023-03-01T19:34:11.304Z,2.13
2023-03-01T19:36:07.387Z,2.19
2023-03-01T19:38:08.997Z,2.15
2023-03-01T19:40:10.241Z,2.03
2023-03-01T19:42:12.045Z,1.93
2023-03-01T19:44:13.969Z,2.01
2023-03-01T19:46:15.970Z,2.05
2023-03-01T19:50:19.004Z,1.98
2023-03-01T19:52:20.134Z,1.96
2023-03-01T19:54:21.226Z,1.91
2023-03-01T19:56:22.464Z,1.95
2023-03-01T19:58:23.988Z,1.87
2023-03-01T20:00:25.874Z,1.94
2023-03-01T20:02:28.468Z,1.84
2023-03-01T20:04:29.935Z,1.85
2023-03-01T20:06:31.889Z,1.82
2023-03-01T20:08:32.822Z,1.85
2023-03-01T20:10:34.344Z,1.8
2023-03-01T20:12:35.766Z,1.73
2023-03-01T20:14:37.191Z,1.76
2023-03-01T20:16:39.134Z,1.76
2023-03-01T20:18:40.133Z,1.68
2023-03-01T20:21:25.702Z,1.62
2023-03-01T20:23:27.667Z,1.49
2023-03-01T20:25:29.429Z,1.46
2023-03-01T20:27:31.154Z,1.47
2023-03-01T20:29:32.693Z,1.49
2023-03-01T20:31:33.861Z,1.37
2023-03-01T20:33:35.306Z,1.33
2023-03-01T20:35:37.118Z,1.23
2023-03-01T20:37:38.617Z,1.13
2023-03-01T20:39:40.129Z,1.08
2023-03-01T20:41:42.001Z,1.19
2023-03-01T20:43:43.708Z,1.26
2023-03-01T20:45:44.762Z,1.3
2023-03-01T20:47:46.176Z,1.25
2023-03-01T20:49:48.143Z,1.17
2023-03-01T20:51:49.927Z,1.05
2023-03-01T20:53:51.269Z,1.07
2023-03-01T20:55:52.546Z,1
2023-03-01T20:57:53.986Z,1.03
2023-03-01T20:59:55.409Z,1
2023-03-01T21:01:57.418Z,1.22
2023-03-01T21:03:58.766Z,1.14
2023-03-01T21:05:59.736Z,1.11
2023-03-01T21:08:01.050Z,1.07
2023-03-01T21:10:02.866Z,1.24
2023-03-01T21:12:04.459Z,1.09
2023-03-01T21:14:06.303Z,1.16
2023-03-01T21:16:07.994Z,1.01
2023-03-01T21:18:09.440Z,0.99
2023-03-01T21:20:10.531Z,0.94
2023-03-01T21:22:12.062Z,0.92
2023-03-01T21:24:13.512Z,1.01
2023-03-01T21:26:15.381Z,0.87
2023-03-01T21:28:16.376Z,0.85
2023-03-01T21:30:17.862Z,0.85
2023-03-01T21:32:20.001Z,0.8
2023-03-01T21:34:20.968Z,0.64
2023-03-01T21:36:22.820Z,0.8
2023-03-01T21:38:24.591Z,0.77
2023-03-01T21:40:25.994Z,0.81
2023-03-01T21:42:27.638Z,0.7
2023-03-01T21:44:28.730Z,0.73
2023-03-01T21:46:30.806Z,0.75
2023-03-01T21:48:32.037Z,0.67
2023-03-01T21:50:33.583Z,0.67
2023-03-01T21:52:34.783Z,0.51
2023-03-01T21:54:36.451Z,0.53
2023-03-01T21:56:37.932Z,0.42
2023-03-01T21:58:39.094Z,0.34
2023-03-01T22:00:40.272Z,0.31
2023-03-01T22:02:41.531Z,0.34
2023-03-01T22:04:42.940Z,0.45
2023-03-01T22:06:44.652Z,0.4
2023-03-01T22:08:45.796Z,0.41
2023-03-01T22:10:47.163Z,0.4
2023-03-01T22:12:48.915Z,0.44
2023-03-01T22:14:50.823Z,0.44
2023-03-01T22:16:52.381Z,0.36
2023-03-01T22:18:53.406Z,0.36
2023-03-01T22:20:55.171Z,0.31
2023-03-01T22:22:56.943Z,0.2
2023-03-01T22:24:58.757Z,0.08
2023-03-01T22:27:00.535Z,-0.01
2023-03-01T22:29:01.973Z,-0.05
2023-03-01T22:31:03.731Z,-0.17
2023-03-01T22:33:05.559Z,-0.12
2023-03-01T22:35:07.350Z,-0.2
2023-03-01T22:37:08.884Z,-0.02
2023-03-01T22:39:09.973Z,-0.12
2023-03-01T22:41:11.311Z,-0.21
2023-03-01T22:43:12.481Z,-0.19
2023-03-01T22:45:13.582Z,-0.25
2023-03-01T22:47:15.314Z,-0.21
2023-03-01T22:49:16.991Z,-0.14
2023-03-01T22:51:18.866Z,-0.19
2023-03-01T22:53:20.570Z,-0.21
2023-03-01T22:55:22.569Z,-0.29
2023-03-01T22:57:24.033Z,-0.24
2023-03-01T22:59:25.171Z,-0.34
2023-03-01T23:01:26.758Z,-0.39
2023-03-01T23:03:37.595Z,-0.33
2023-03-01T23:05:30.620Z,-0.19
2023-03-01T23:07:32.030Z,-0.26
2023-03-01T23:09:33.617Z,-0.31
2023-03-01T23:11:35.656Z,-0.24
2023-03-01T23:13:37.348Z,-0.21
2023-03-01T23:15:38.664Z,-0.19
2023-03-01T23:17:40.500Z,-0.24
2023-03-01T23:19:42.365Z,-0.24
2023-03-01T23:21:43.927Z,-0.29
2023-03-01T23:23:46.006Z,-0.23
2023-03-01T23:25:48.149Z,-0.26
2023-03-01T23:27:49.227Z,-0.43
2023-03-01T23:29:50.473Z,-0.34
2023-03-01T23:31:52.072Z,-0.31
2023-03-01T23:33:53.727Z,-0.25
2023-03-01T23:35:55.308Z,-0.24
2023-03-01T23:37:56.816Z,-0.29
2023-03-01T23:39:58.615Z,-0.38
2023-03-01T23:42:00.293Z,-0.53
2023-03-01T23:44:01.446Z,-0.61
2023-03-01T23:46:02.588Z,-0.71
2023-03-01T23:48:04.190Z,-0.77
2023-03-01T23:50:05.402Z,-0.75
2023-03-01T23:52:06.479Z,-0.78
2023-03-01T23:54:07.760Z,-0.66
2023-03-01T23:56:09.680Z,-0.62
2023-03-01T23:58:10.870Z,-0.66
